METAR rapporten vliegvelden

   
EHVK - Volkel Rnlafb, Netherlands
Afstand tot: ZW 18 km
Gewijzigd: 19-08-2019 08:25
Helder  
Helder  
   Wind: ZW 24.1 km/h
Wind: ZW 24.1 km/h
Temperatuur: 15°C
Dauwpunt: 12°C
Vochtigheid: 82%
Barometer: 1013 hPa
Bewolking: Helder
Zicht: meer dan 10 km
Bewolking: Helder
EHVK 190625Z AUTO 22013KT 190V250 9999 NCD 15/12 Q1013 BLU 22011KT CAVOK
EDLV - Niederrhein, Germany
Afstand tot: ZO 25 km
Gewijzigd: 19-08-2019 08:20
Helder  
Helder  
   Wind: ZW 16.7 km/h
Wind: ZW 16.7 km/h
Temperatuur: 15°C
Dauwpunt: 13°C
Vochtigheid: 88%
Barometer: 1014 hPa
Zicht: meer dan 10 km
Bewolking: Helder
EDLV 190620Z 22009KT CAVOK 15/13 Q1014
EHDL - Deelen Rnlafb, Netherlands
Afstand tot: N 35 km
Gewijzigd: 19-08-2019 08:25
Grotendeels bewolkt  
Grotendeels bewolkt  
   Wind: ZZW 16.7 km/h
Wind: ZZW 16.7 km/h
Temperatuur: 14°C
Dauwpunt: 13°C
Vochtigheid: 94%
Barometer: 1013 hPa
Bewolking: Grotendeels bewolkt
Zicht: meer dan 10 km
Bewolking: Grotendeels bewolkt 1000 ft
EHDL 190625Z AUTO 21009KT 160V260 9999 BKN010 14/13 Q1013 GRN
EHEH - Eindhoven Rnlafb, Netherlands
Afstand tot: ZW 48 km
Gewijzigd: 19-08-2019 08:25
Helder  
Helder  
   Wind: ZZW 20.4 km/h
Wind: ZZW 20.4 km/h
Temperatuur: 15°C
Dauwpunt: 12°C
Vochtigheid: 82%
Barometer: 1014 hPa
Bewolking: Helder
Zicht: meer dan 10 km
Bewolking: Helder
EHEH 190625Z AUTO 21011KT 9999 NCD 15/12 Q1014 BLU 21010KT CAVOK
EHGR - Gilze-Rijen Rnla, Netherlands
Afstand tot: WZW 70 km
Gewijzigd: 19-08-2019 08:26
Helder  
Helder  
   Wind: ZZW 16.7 km/h
Wind: ZZW 16.7 km/h
Temperatuur: 15°C
Dauwpunt: 12°C
Vochtigheid: 82%
Barometer: 1013 hPa
Bewolking: Helder
Zicht: meer dan 10 km
Bewolking: Helder
EHGR 190626Z AUTO 21009KT 180V260 9999 NCD 15/12 Q1013 BLU 21010KT CAVOK
EBBL - Kleine-Brogel(Ba, Belgium
Afstand tot: ZZW 71 km
Gewijzigd: 19-08-2019 07:32
Helder  
Helder  
   Wind: ZZW 14.8 km/h
Wind: ZZW 14.8 km/h
Temperatuur: 13°C
Dauwpunt: 11°C
Vochtigheid: 88%
Barometer: 1015 hPa
Bewolking: Helder
Zicht: meer dan 10 km
Bewolking: Helder
EBBL 190532Z 21008KT 9999 SKC 13/11 Q1015 BLU BLU

Script ontwikkeld door  Saratoga-weather.org Aangepast voor de template door  Weerstation Leuven

U vindt ons ook hier:

Het Weer Aktueel

European Weather Network

WeatherCloud

Weather Underground

Benelux Weer Netwerk

Apparatuur in gebruik:

Weerstation
Davis VP2

Weerprogramma
consoleWD

Weercomputer
Raspberry

Webleverancier
Stef van Bakel koeltechniek

Davis VP2

consoleWD

Raspberry

Stef van Bakel koeltechniek